sensor_id;sensor_type;location;lat;lon;timestamp;P1;durP1;ratioP1;P2;durP2;ratioP2
79088;SDS011;68489;50.286;9.452;2024-02-28T00:01:21;14.93;;;4.13;;
79088;SDS011;68489;50.286;9.452;2024-02-28T00:03:46;16.33;;;4.10;;
79088;SDS011;68489;50.286;9.452;2024-02-28T00:06:12;19.30;;;4.18;;
79088;SDS011;68489;50.286;9.452;2024-02-28T00:08:37;15.07;;;3.88;;
79088;SDS011;68489;50.286;9.452;2024-02-28T00:11:02;16.40;;;4.07;;
79088;SDS011;68489;50.286;9.452;2024-02-28T00:13:28;15.73;;;4.05;;
79088;SDS011;68489;50.286;9.452;2024-02-28T00:15:53;15.10;;;4.97;;
79088;SDS011;68489;50.286;9.452;2024-02-28T00:18:18;15.10;;;4.97;;
79088;SDS011;68489;50.286;9.452;2024-02-28T00:20:44;15.65;;;4.65;;
79088;SDS011;68489;50.286;9.452;2024-02-28T00:23:10;18.95;;;4.97;;
79088;SDS011;68489;50.286;9.452;2024-02-28T00:25:35;17.75;;;4.70;;
79088;SDS011;68489;50.286;9.452;2024-02-28T00:28:01;16.45;;;4.15;;
79088;SDS011;68489;50.286;9.452;2024-02-28T00:30:26;15.13;;;5.13;;
79088;SDS011;68489;50.286;9.452;2024-02-28T00:32:53;19.85;;;5.80;;
79088;SDS011;68489;50.286;9.452;2024-02-28T00:35:19;17.17;;;5.13;;
79088;SDS011;68489;50.286;9.452;2024-02-28T00:37:44;15.30;;;4.53;;
79088;SDS011;68489;50.286;9.452;2024-02-28T00:40:09;18.45;;;5.07;;
79088;SDS011;68489;50.286;9.452;2024-02-28T00:42:35;15.48;;;4.45;;
79088;SDS011;68489;50.286;9.452;2024-02-28T00:45:00;16.38;;;5.07;;
79088;SDS011;68489;50.286;9.452;2024-02-28T00:47:26;19.17;;;4.95;;
79088;SDS011;68489;50.286;9.452;2024-02-28T00:49:51;18.35;;;4.70;;
79088;SDS011;68489;50.286;9.452;2024-02-28T00:52:16;19.73;;;4.67;;
79088;SDS011;68489;50.286;9.452;2024-02-28T00:54:42;17.25;;;5.65;;
79088;SDS011;68489;50.286;9.452;2024-02-28T00:57:07;15.85;;;4.85;;
79088;SDS011;68489;50.286;9.452;2024-02-28T00:59:32;16.48;;;5.22;;
79088;SDS011;68489;50.286;9.452;2024-02-28T01:01:58;15.43;;;4.25;;
79088;SDS011;68489;50.286;9.452;2024-02-28T01:04:23;14.32;;;5.30;;
79088;SDS011;68489;50.286;9.452;2024-02-28T01:06:48;14.05;;;4.88;;
79088;SDS011;68489;50.286;9.452;2024-02-28T01:09:14;16.17;;;4.63;;
79088;SDS011;68489;50.286;9.452;2024-02-28T01:11:39;19.10;;;6.25;;
79088;SDS011;68489;50.286;9.452;2024-02-28T01:14:04;16.03;;;4.93;;
79088;SDS011;68489;50.286;9.452;2024-02-28T01:16:30;16.47;;;4.27;;
79088;SDS011;68489;50.286;9.452;2024-02-28T01:18:55;13.77;;;5.03;;
79088;SDS011;68489;50.286;9.452;2024-02-28T01:21:21;14.20;;;4.60;;
79088;SDS011;68489;50.286;9.452;2024-02-28T01:23:46;15.02;;;4.70;;
79088;SDS011;68489;50.286;9.452;2024-02-28T01:26:11;14.23;;;4.55;;
79088;SDS011;68489;50.286;9.452;2024-02-28T01:28:37;14.68;;;4.53;;
79088;SDS011;68489;50.286;9.452;2024-02-28T01:31:02;13.63;;;4.57;;
79088;SDS011;68489;50.286;9.452;2024-02-28T01:33:28;17.75;;;4.40;;
79088;SDS011;68489;50.286;9.452;2024-02-28T01:35:53;17.52;;;5.15;;
79088;SDS011;68489;50.286;9.452;2024-02-28T01:38:18;17.80;;;5.27;;
79088;SDS011;68489;50.286;9.452;2024-02-28T01:40:45;17.05;;;4.68;;
79088;SDS011;68489;50.286;9.452;2024-02-28T01:43:11;14.30;;;4.95;;
79088;SDS011;68489;50.286;9.452;2024-02-28T01:45:36;15.05;;;4.13;;
79088;SDS011;68489;50.286;9.452;2024-02-28T01:48:02;18.07;;;4.77;;
79088;SDS011;68489;50.286;9.452;2024-02-28T01:50:30;18.95;;;4.85;;
79088;SDS011;68489;50.286;9.452;2024-02-28T01:52:56;17.45;;;4.80;;
79088;SDS011;68489;50.286;9.452;2024-02-28T01:55:22;16.58;;;6.03;;
79088;SDS011;68489;50.286;9.452;2024-02-28T01:57:47;17.15;;;4.15;;
79088;SDS011;68489;50.286;9.452;2024-02-28T02:00:13;17.83;;;4.57;;
79088;SDS011;68489;50.286;9.452;2024-02-28T02:02:38;18.00;;;4.97;;
79088;SDS011;68489;50.286;9.452;2024-02-28T02:05:04;17.08;;;5.13;;
79088;SDS011;68489;50.286;9.452;2024-02-28T02:07:30;19.08;;;4.97;;
79088;SDS011;68489;50.286;9.452;2024-02-28T02:09:56;20.35;;;5.40;;
79088;SDS011;68489;50.286;9.452;2024-02-28T02:12:21;16.55;;;5.05;;
79088;SDS011;68489;50.286;9.452;2024-02-28T02:14:49;15.27;;;4.97;;
79088;SDS011;68489;50.286;9.452;2024-02-28T02:17:14;14.48;;;4.45;;
79088;SDS011;68489;50.286;9.452;2024-02-28T02:19:40;20.30;;;5.93;;
79088;SDS011;68489;50.286;9.452;2024-02-28T02:22:05;18.52;;;5.10;;
79088;SDS011;68489;50.286;9.452;2024-02-28T02:24:33;19.80;;;5.25;;
79088;SDS011;68489;50.286;9.452;2024-02-28T02:26:59;17.17;;;4.03;;
79088;SDS011;68489;50.286;9.452;2024-02-28T02:29:26;16.23;;;5.03;;
79088;SDS011;68489;50.286;9.452;2024-02-28T02:31:53;18.63;;;5.80;;
79088;SDS011;68489;50.286;9.452;2024-02-28T02:34:19;19.80;;;5.57;;
79088;SDS011;68489;50.286;9.452;2024-02-28T02:36:44;13.20;;;4.60;;
79088;SDS011;68489;50.286;9.452;2024-02-28T02:39:09;14.75;;;4.47;;
79088;SDS011;68489;50.286;9.452;2024-02-28T02:41:35;17.15;;;4.30;;
79088;SDS011;68489;50.286;9.452;2024-02-28T02:44:00;17.37;;;4.47;;
79088;SDS011;68489;50.286;9.452;2024-02-28T02:46:25;12.93;;;4.67;;
79088;SDS011;68489;50.286;9.452;2024-02-28T02:48:51;17.27;;;5.13;;
79088;SDS011;68489;50.286;9.452;2024-02-28T02:51:18;19.77;;;5.03;;
79088;SDS011;68489;50.286;9.452;2024-02-28T02:53:44;14.80;;;4.50;;
79088;SDS011;68489;50.286;9.452;2024-02-28T02:56:09;17.15;;;5.05;;
79088;SDS011;68489;50.286;9.452;2024-02-28T02:58:34;18.37;;;5.57;;
79088;SDS011;68489;50.286;9.452;2024-02-28T03:01:00;19.57;;;5.40;;
79088;SDS011;68489;50.286;9.452;2024-02-28T03:03:25;17.13;;;5.50;;
79088;SDS011;68489;50.286;9.452;2024-02-28T03:05:50;17.52;;;5.82;;
79088;SDS011;68489;50.286;9.452;2024-02-28T03:08:16;15.43;;;4.43;;
79088;SDS011;68489;50.286;9.452;2024-02-28T03:10:41;18.27;;;5.15;;
79088;SDS011;68489;50.286;9.452;2024-02-28T03:13:06;21.13;;;5.17;;
79088;SDS011;68489;50.286;9.452;2024-02-28T03:15:32;17.75;;;5.88;;
79088;SDS011;68489;50.286;9.452;2024-02-28T03:17:58;19.92;;;6.13;;
79088;SDS011;68489;50.286;9.452;2024-02-28T03:20:24;19.92;;;4.40;;
79088;SDS011;68489;50.286;9.452;2024-02-28T03:22:50;20.58;;;5.55;;
79088;SDS011;68489;50.286;9.452;2024-02-28T03:25:15;19.73;;;4.82;;
79088;SDS011;68489;50.286;9.452;2024-02-28T03:27:41;19.38;;;5.25;;
79088;SDS011;68489;50.286;9.452;2024-02-28T03:30:06;17.37;;;4.47;;
79088;SDS011;68489;50.286;9.452;2024-02-28T03:32:32;17.90;;;4.85;;
79088;SDS011;68489;50.286;9.452;2024-02-28T03:34:57;18.73;;;5.80;;
79088;SDS011;68489;50.286;9.452;2024-02-28T03:37:23;16.27;;;4.63;;
79088;SDS011;68489;50.286;9.452;2024-02-28T03:39:48;14.80;;;5.07;;
79088;SDS011;68489;50.286;9.452;2024-02-28T03:42:14;17.90;;;5.43;;
79088;SDS011;68489;50.286;9.452;2024-02-28T03:44:39;20.17;;;5.60;;
79088;SDS011;68489;50.286;9.452;2024-02-28T03:47:04;18.90;;;4.43;;
79088;SDS011;68489;50.286;9.452;2024-02-28T03:49:30;18.27;;;4.95;;
79088;SDS011;68489;50.286;9.452;2024-02-28T03:51:55;17.07;;;4.97;;
79088;SDS011;68489;50.286;9.452;2024-02-28T03:54:20;15.63;;;4.00;;
79088;SDS011;68489;50.286;9.452;2024-02-28T03:56:46;14.83;;;4.43;;
79088;SDS011;68489;50.286;9.452;2024-02-28T03:59:11;16.52;;;5.50;;
79088;SDS011;68489;50.286;9.452;2024-02-28T04:01:36;18.87;;;5.40;;
79088;SDS011;68489;50.286;9.452;2024-02-28T04:04:02;16.83;;;5.57;;
79088;SDS011;68489;50.286;9.452;2024-02-28T04:06:27;18.90;;;3.72;;
79088;SDS011;68489;50.286;9.452;2024-02-28T04:08:52;18.40;;;5.15;;
79088;SDS011;68489;50.286;9.452;2024-02-28T04:11:18;16.92;;;5.45;;
79088;SDS011;68489;50.286;9.452;2024-02-28T04:13:44;18.85;;;4.03;;
79088;SDS011;68489;50.286;9.452;2024-02-28T04:16:09;18.43;;;5.60;;
79088;SDS011;68489;50.286;9.452;2024-02-28T04:18:34;15.15;;;4.75;;
79088;SDS011;68489;50.286;9.452;2024-02-28T04:21:00;14.55;;;4.30;;
79088;SDS011;68489;50.286;9.452;2024-02-28T04:23:25;17.73;;;4.57;;
79088;SDS011;68489;50.286;9.452;2024-02-28T04:25:50;16.30;;;4.83;;
79088;SDS011;68489;50.286;9.452;2024-02-28T04:28:16;18.30;;;4.87;;
79088;SDS011;68489;50.286;9.452;2024-02-28T04:30:41;17.50;;;4.80;;
79088;SDS011;68489;50.286;9.452;2024-02-28T04:33:07;16.70;;;4.15;;
79088;SDS011;68489;50.286;9.452;2024-02-28T04:35:32;14.73;;;5.40;;
79088;SDS011;68489;50.286;9.452;2024-02-28T04:37:57;15.30;;;4.25;;
79088;SDS011;68489;50.286;9.452;2024-02-28T04:40:23;16.67;;;4.47;;
79088;SDS011;68489;50.286;9.452;2024-02-28T04:42:48;15.15;;;5.55;;
79088;SDS011;68489;50.286;9.452;2024-02-28T04:45:13;16.60;;;5.40;;
79088;SDS011;68489;50.286;9.452;2024-02-28T04:47:39;17.00;;;4.60;;
79088;SDS011;68489;50.286;9.452;2024-02-28T04:50:04;15.93;;;5.10;;
79088;SDS011;68489;50.286;9.452;2024-02-28T04:52:33;12.80;;;4.55;;
79088;SDS011;68489;50.286;9.452;2024-02-28T04:54:59;24.05;;;6.68;;
79088;SDS011;68489;50.286;9.452;2024-02-28T04:57:24;15.00;;;5.68;;
79088;SDS011;68489;50.286;9.452;2024-02-28T04:59:50;17.17;;;5.43;;
79088;SDS011;68489;50.286;9.452;2024-02-28T05:02:15;16.77;;;5.43;;
79088;SDS011;68489;50.286;9.452;2024-02-28T05:04:41;19.52;;;5.43;;
79088;SDS011;68489;50.286;9.452;2024-02-28T05:07:07;16.98;;;4.80;;
79088;SDS011;68489;50.286;9.452;2024-02-28T05:09:33;15.95;;;5.32;;
79088;SDS011;68489;50.286;9.452;2024-02-28T05:11:58;18.92;;;4.53;;
79088;SDS011;68489;50.286;9.452;2024-02-28T05:14:24;16.05;;;4.40;;
79088;SDS011;68489;50.286;9.452;2024-02-28T05:16:49;22.83;;;5.60;;
79088;SDS011;68489;50.286;9.452;2024-02-28T05:19:15;17.67;;;5.32;;
79088;SDS011;68489;50.286;9.452;2024-02-28T05:21:43;21.05;;;4.80;;
79088;SDS011;68489;50.286;9.452;2024-02-28T05:24:09;16.80;;;5.10;;
79088;SDS011;68489;50.286;9.452;2024-02-28T05:26:35;16.75;;;5.05;;
79088;SDS011;68489;50.286;9.452;2024-02-28T05:29:01;18.98;;;6.72;;
79088;SDS011;68489;50.286;9.452;2024-02-28T05:31:28;19.30;;;5.78;;
79088;SDS011;68489;50.286;9.452;2024-02-28T05:33:54;14.55;;;4.38;;
79088;SDS011;68489;50.286;9.452;2024-02-28T05:36:21;14.98;;;4.53;;
79088;SDS011;68489;50.286;9.452;2024-02-28T05:38:47;13.68;;;4.38;;
79088;SDS011;68489;50.286;9.452;2024-02-28T05:41:13;19.00;;;4.88;;
79088;SDS011;68489;50.286;9.452;2024-02-28T05:43:39;12.95;;;4.40;;
79088;SDS011;68489;50.286;9.452;2024-02-28T05:46:05;15.65;;;4.47;;
79088;SDS011;68489;50.286;9.452;2024-02-28T05:48:31;15.07;;;4.35;;
79088;SDS011;68489;50.286;9.452;2024-02-28T05:50:57;20.45;;;5.18;;
79088;SDS011;68489;50.286;9.452;2024-02-28T05:53:22;12.83;;;4.50;;
79088;SDS011;68489;50.286;9.452;2024-02-28T05:55:51;17.88;;;4.82;;
79088;SDS011;68489;50.286;9.452;2024-02-28T05:58:18;15.73;;;4.82;;
79088;SDS011;68489;50.286;9.452;2024-02-28T06:00:44;14.93;;;4.47;;
79088;SDS011;68489;50.286;9.452;2024-02-28T06:03:09;18.33;;;4.30;;
79088;SDS011;68489;50.286;9.452;2024-02-28T06:05:34;13.53;;;3.87;;
79088;SDS011;68489;50.286;9.452;2024-02-28T06:08:00;18.48;;;5.38;;
79088;SDS011;68489;50.286;9.452;2024-02-28T06:10:25;16.63;;;4.23;;
79088;SDS011;68489;50.286;9.452;2024-02-28T06:12:50;17.47;;;4.03;;
79088;SDS011;68489;50.286;9.452;2024-02-28T06:15:16;12.82;;;3.20;;
79088;SDS011;68489;50.286;9.452;2024-02-28T06:17:42;13.03;;;3.97;;
79088;SDS011;68489;50.286;9.452;2024-02-28T06:20:07;16.27;;;5.00;;
79088;SDS011;68489;50.286;9.452;2024-02-28T06:22:33;15.95;;;5.18;;
79088;SDS011;68489;50.286;9.452;2024-02-28T06:24:58;15.50;;;4.83;;
79088;SDS011;68489;50.286;9.452;2024-02-28T06:27:23;15.00;;;4.85;;
79088;SDS011;68489;50.286;9.452;2024-02-28T06:29:48;15.10;;;4.53;;
79088;SDS011;68489;50.286;9.452;2024-02-28T06:32:14;21.42;;;5.50;;
79088;SDS011;68489;50.286;9.452;2024-02-28T06:34:39;19.85;;;6.47;;
79088;SDS011;68489;50.286;9.452;2024-02-28T06:37:05;15.87;;;5.10;;
79088;SDS011;68489;50.286;9.452;2024-02-28T06:39:30;20.27;;;5.73;;
79088;SDS011;68489;50.286;9.452;2024-02-28T06:41:55;19.40;;;5.60;;
79088;SDS011;68489;50.286;9.452;2024-02-28T06:44:21;20.30;;;5.72;;
79088;SDS011;68489;50.286;9.452;2024-02-28T06:46:46;19.27;;;5.57;;
79088;SDS011;68489;50.286;9.452;2024-02-28T06:49:11;21.03;;;5.60;;
79088;SDS011;68489;50.286;9.452;2024-02-28T06:51:37;15.85;;;4.60;;
79088;SDS011;68489;50.286;9.452;2024-02-28T06:54:02;17.95;;;5.97;;
79088;SDS011;68489;50.286;9.452;2024-02-28T06:56:28;18.67;;;5.40;;
79088;SDS011;68489;50.286;9.452;2024-02-28T06:58:55;17.67;;;4.88;;
79088;SDS011;68489;50.286;9.452;2024-02-28T07:01:20;18.77;;;6.23;;
79088;SDS011;68489;50.286;9.452;2024-02-28T07:03:45;15.43;;;4.95;;
79088;SDS011;68489;50.286;9.452;2024-02-28T07:06:11;16.90;;;4.57;;
79088;SDS011;68489;50.286;9.452;2024-02-28T07:08:36;14.65;;;4.43;;
79088;SDS011;68489;50.286;9.452;2024-02-28T07:11:02;17.08;;;4.80;;
79088;SDS011;68489;50.286;9.452;2024-02-28T07:13:28;20.38;;;4.78;;
79088;SDS011;68489;50.286;9.452;2024-02-28T07:15:54;16.95;;;4.97;;
79088;SDS011;68489;50.286;9.452;2024-02-28T07:18:21;16.40;;;3.75;;
79088;SDS011;68489;50.286;9.452;2024-02-28T07:20:46;13.60;;;3.78;;
79088;SDS011;68489;50.286;9.452;2024-02-28T07:23:11;15.07;;;4.63;;
79088;SDS011;68489;50.286;9.452;2024-02-28T07:25:37;13.13;;;2.65;;
79088;SDS011;68489;50.286;9.452;2024-02-28T07:28:02;12.63;;;3.15;;
79088;SDS011;68489;50.286;9.452;2024-02-28T07:30:28;11.98;;;3.60;;
79088;SDS011;68489;50.286;9.452;2024-02-28T07:32:53;12.10;;;4.07;;
79088;SDS011;68489;50.286;9.452;2024-02-28T07:35:19;12.73;;;3.20;;
79088;SDS011;68489;50.286;9.452;2024-02-28T07:37:45;13.02;;;3.45;;
79088;SDS011;68489;50.286;9.452;2024-02-28T07:40:11;14.55;;;3.85;;
79088;SDS011;68489;50.286;9.452;2024-02-28T07:42:37;14.30;;;3.15;;
79088;SDS011;68489;50.286;9.452;2024-02-28T07:45:02;15.47;;;3.93;;
79088;SDS011;68489;50.286;9.452;2024-02-28T07:47:28;12.48;;;2.75;;
79088;SDS011;68489;50.286;9.452;2024-02-28T07:49:53;10.70;;;3.80;;
79088;SDS011;68489;50.286;9.452;2024-02-28T07:52:19;11.43;;;3.10;;
79088;SDS011;68489;50.286;9.452;2024-02-28T07:54:45;11.35;;;2.90;;
79088;SDS011;68489;50.286;9.452;2024-02-28T07:57:10;13.63;;;3.10;;
79088;SDS011;68489;50.286;9.452;2024-02-28T07:59:39;12.93;;;3.60;;
79088;SDS011;68489;50.286;9.452;2024-02-28T08:02:05;10.18;;;3.40;;
79088;SDS011;68489;50.286;9.452;2024-02-28T08:04:31;13.68;;;3.90;;
79088;SDS011;68489;50.286;9.452;2024-02-28T08:06:56;11.63;;;2.90;;
79088;SDS011;68489;50.286;9.452;2024-02-28T08:09:22;11.32;;;2.85;;
79088;SDS011;68489;50.286;9.452;2024-02-28T08:11:47;10.75;;;2.95;;
79088;SDS011;68489;50.286;9.452;2024-02-28T08:14:13;12.93;;;3.78;;
79088;SDS011;68489;50.286;9.452;2024-02-28T08:16:38;16.40;;;4.95;;
79088;SDS011;68489;50.286;9.452;2024-02-28T08:19:04;14.33;;;4.03;;
79088;SDS011;68489;50.286;9.452;2024-02-28T08:21:29;12.73;;;3.65;;
79088;SDS011;68489;50.286;9.452;2024-02-28T08:23:54;15.50;;;3.73;;
79088;SDS011;68489;50.286;9.452;2024-02-28T08:26:20;15.18;;;3.53;;
79088;SDS011;68489;50.286;9.452;2024-02-28T08:28:45;13.32;;;4.03;;
79088;SDS011;68489;50.286;9.452;2024-02-28T08:31:10;11.17;;;3.07;;
79088;SDS011;68489;50.286;9.452;2024-02-28T08:33:36;14.65;;;3.72;;
79088;SDS011;68489;50.286;9.452;2024-02-28T08:36:01;14.85;;;3.42;;
79088;SDS011;68489;50.286;9.452;2024-02-28T08:38:27;11.35;;;3.30;;
79088;SDS011;68489;50.286;9.452;2024-02-28T08:40:52;14.50;;;4.53;;
79088;SDS011;68489;50.286;9.452;2024-02-28T08:43:18;14.63;;;3.60;;
79088;SDS011;68489;50.286;9.452;2024-02-28T08:45:43;11.53;;;3.67;;
79088;SDS011;68489;50.286;9.452;2024-02-28T08:48:08;11.77;;;3.47;;
79088;SDS011;68489;50.286;9.452;2024-02-28T08:50:34;11.37;;;3.30;;
79088;SDS011;68489;50.286;9.452;2024-02-28T08:52:59;16.15;;;4.57;;
79088;SDS011;68489;50.286;9.452;2024-02-28T08:55:24;15.32;;;3.53;;
79088;SDS011;68489;50.286;9.452;2024-02-28T08:57:50;13.27;;;3.90;;
79088;SDS011;68489;50.286;9.452;2024-02-28T09:00:15;14.80;;;4.27;;
79088;SDS011;68489;50.286;9.452;2024-02-28T09:02:41;15.15;;;4.25;;
79088;SDS011;68489;50.286;9.452;2024-02-28T09:05:06;12.57;;;4.25;;
79088;SDS011;68489;50.286;9.452;2024-02-28T09:07:32;12.65;;;3.55;;
79088;SDS011;68489;50.286;9.452;2024-02-28T09:10:00;16.38;;;4.65;;
79088;SDS011;68489;50.286;9.452;2024-02-28T09:12:26;13.05;;;4.00;;
79088;SDS011;68489;50.286;9.452;2024-02-28T09:14:51;14.97;;;5.00;;
79088;SDS011;68489;50.286;9.452;2024-02-28T09:17:21;10.75;;;4.40;;
79088;SDS011;68489;50.286;9.452;2024-02-28T09:19:47;11.93;;;3.53;;
79088;SDS011;68489;50.286;9.452;2024-02-28T09:22:12;16.00;;;4.13;;
79088;SDS011;68489;50.286;9.452;2024-02-28T09:24:37;12.13;;;3.57;;
79088;SDS011;68489;50.286;9.452;2024-02-28T09:27:03;15.43;;;4.07;;
79088;SDS011;68489;50.286;9.452;2024-02-28T09:29:28;13.50;;;3.85;;
79088;SDS011;68489;50.286;9.452;2024-02-28T09:31:53;13.13;;;3.83;;
79088;SDS011;68489;50.286;9.452;2024-02-28T09:34:19;13.67;;;4.53;;
79088;SDS011;68489;50.286;9.452;2024-02-28T09:36:44;13.82;;;4.13;;
79088;SDS011;68489;50.286;9.452;2024-02-28T09:39:13;11.48;;;3.50;;
79088;SDS011;68489;50.286;9.452;2024-02-28T09:44:06;11.93;;;2.45;;
79088;SDS011;68489;50.286;9.452;2024-02-28T09:46:32;12.43;;;3.22;;
79088;SDS011;68489;50.286;9.452;2024-02-28T09:48:59;12.32;;;4.03;;
79088;SDS011;68489;50.286;9.452;2024-02-28T09:51:30;11.95;;;3.45;;
79088;SDS011;68489;50.286;9.452;2024-02-28T09:53:58;10.13;;;3.13;;
79088;SDS011;68489;50.286;9.452;2024-02-28T09:56:25;8.60;;;2.40;;
79088;SDS011;68489;50.286;9.452;2024-02-28T09:58:52;9.93;;;2.50;;
79088;SDS011;68489;50.286;9.452;2024-02-28T10:01:19;11.55;;;2.08;;
79088;SDS011;68489;50.286;9.452;2024-02-28T10:03:47;8.25;;;2.28;;
79088;SDS011;68489;50.286;9.452;2024-02-28T10:06:15;7.85;;;2.08;;
79088;SDS011;68489;50.286;9.452;2024-02-28T10:08:41;8.13;;;2.03;;
79088;SDS011;68489;50.286;9.452;2024-02-28T10:11:06;10.60;;;2.60;;
79088;SDS011;68489;50.286;9.452;2024-02-28T10:13:31;10.80;;;2.50;;
79088;SDS011;68489;50.286;9.452;2024-02-28T10:15:57;8.37;;;1.67;;
79088;SDS011;68489;50.286;9.452;2024-02-28T10:18:22;8.85;;;1.77;;
79088;SDS011;68489;50.286;9.452;2024-02-28T10:20:48;8.68;;;2.63;;
79088;SDS011;68489;50.286;9.452;2024-02-28T10:23:13;9.18;;;2.05;;
79088;SDS011;68489;50.286;9.452;2024-02-28T10:25:43;9.38;;;2.10;;
79088;SDS011;68489;50.286;9.452;2024-02-28T10:28:10;11.40;;;2.10;;
79088;SDS011;68489;50.286;9.452;2024-02-28T10:30:41;8.80;;;2.53;;
79088;SDS011;68489;50.286;9.452;2024-02-28T10:33:11;7.57;;;2.10;;
79088;SDS011;68489;50.286;9.452;2024-02-28T10:35:39;7.57;;;1.55;;
79088;SDS011;68489;50.286;9.452;2024-02-28T10:38:05;7.75;;;1.33;;
79088;SDS011;68489;50.286;9.452;2024-02-28T10:40:31;7.53;;;1.52;;
79088;SDS011;68489;50.286;9.452;2024-02-28T10:42:57;7.03;;;1.50;;
79088;SDS011;68489;50.286;9.452;2024-02-28T10:45:23;7.45;;;1.55;;
79088;SDS011;68489;50.286;9.452;2024-02-28T10:47:50;7.63;;;1.60;;
79088;SDS011;68489;50.286;9.452;2024-02-28T10:50:16;8.25;;;2.08;;
79088;SDS011;68489;50.286;9.452;2024-02-28T10:52:45;7.95;;;1.90;;
79088;SDS011;68489;50.286;9.452;2024-02-28T10:55:14;8.90;;;1.92;;
79088;SDS011;68489;50.286;9.452;2024-02-28T10:57:45;6.88;;;1.45;;
79088;SDS011;68489;50.286;9.452;2024-02-28T11:00:15;8.23;;;1.98;;
79088;SDS011;68489;50.286;9.452;2024-02-28T11:02:42;9.60;;;1.88;;
79088;SDS011;68489;50.286;9.452;2024-02-28T11:05:08;9.23;;;2.30;;
79088;SDS011;68489;50.286;9.452;2024-02-28T11:07:33;9.27;;;1.40;;
79088;SDS011;68489;50.286;9.452;2024-02-28T11:10:03;7.13;;;1.70;;
79088;SDS011;68489;50.286;9.452;2024-02-28T11:12:30;8.82;;;2.47;;
79088;SDS011;68489;50.286;9.452;2024-02-28T11:14:57;10.88;;;2.45;;
79088;SDS011;68489;50.286;9.452;2024-02-28T11:17:27;6.38;;;1.60;;
79088;SDS011;68489;50.286;9.452;2024-02-28T11:19:54;7.28;;;1.70;;
79088;SDS011;68489;50.286;9.452;2024-02-28T11:22:20;6.03;;;1.38;;
79088;SDS011;68489;50.286;9.452;2024-02-28T11:24:46;9.40;;;1.23;;
79088;SDS011;68489;50.286;9.452;2024-02-28T11:27:12;6.10;;;1.60;;
79088;SDS011;68489;50.286;9.452;2024-02-28T11:29:40;5.07;;;1.20;;
79088;SDS011;68489;50.286;9.452;2024-02-28T11:32:06;6.70;;;0.82;;
79088;SDS011;68489;50.286;9.452;2024-02-28T11:34:33;5.57;;;1.15;;
79088;SDS011;68489;50.286;9.452;2024-02-28T11:36:59;6.43;;;0.95;;
79088;SDS011;68489;50.286;9.452;2024-02-28T11:39:24;6.18;;;0.95;;
79088;SDS011;68489;50.286;9.452;2024-02-28T11:41:51;4.03;;;0.52;;
79088;SDS011;68489;50.286;9.452;2024-02-28T11:44:17;4.80;;;0.70;;
79088;SDS011;68489;50.286;9.452;2024-02-28T11:46:46;6.78;;;1.02;;
79088;SDS011;68489;50.286;9.452;2024-02-28T11:49:12;4.90;;;0.50;;
79088;SDS011;68489;50.286;9.452;2024-02-28T11:51:45;6.53;;;0.60;;
79088;SDS011;68489;50.286;9.452;2024-02-28T11:54:11;4.90;;;0.73;;
79088;SDS011;68489;50.286;9.452;2024-02-28T11:56:37;8.50;;;1.13;;
79088;SDS011;68489;50.286;9.452;2024-02-28T11:59:03;5.63;;;0.98;;
79088;SDS011;68489;50.286;9.452;2024-02-28T12:01:36;5.78;;;1.77;;
79088;SDS011;68489;50.286;9.452;2024-02-28T12:04:03;5.53;;;1.20;;
79088;SDS011;68489;50.286;9.452;2024-02-28T12:06:30;6.55;;;0.70;;
79088;SDS011;68489;50.286;9.452;2024-02-28T12:08:55;6.68;;;1.10;;
79088;SDS011;68489;50.286;9.452;2024-02-28T12:11:21;5.13;;;0.73;;
79088;SDS011;68489;50.286;9.452;2024-02-28T12:13:46;4.22;;;0.60;;
79088;SDS011;68489;50.286;9.452;2024-02-28T12:16:12;6.20;;;1.07;;
79088;SDS011;68489;50.286;9.452;2024-02-28T12:18:37;4.00;;;0.63;;
79088;SDS011;68489;50.286;9.452;2024-02-28T12:21:02;4.47;;;0.45;;
79088;SDS011;68489;50.286;9.452;2024-02-28T12:23:28;5.50;;;0.55;;
79088;SDS011;68489;50.286;9.452;2024-02-28T12:25:54;3.55;;;0.30;;
79088;SDS011;68489;50.286;9.452;2024-02-28T12:28:19;3.30;;;0.38;;
79088;SDS011;68489;50.286;9.452;2024-02-28T12:30:45;4.30;;;0.50;;
79088;SDS011;68489;50.286;9.452;2024-02-28T12:33:10;3.55;;;0.32;;
79088;SDS011;68489;50.286;9.452;2024-02-28T12:35:39;3.72;;;0.60;;
79088;SDS011;68489;50.286;9.452;2024-02-28T12:38:04;4.32;;;0.60;;
79088;SDS011;68489;50.286;9.452;2024-02-28T12:40:30;5.28;;;0.82;;
79088;SDS011;68489;50.286;9.452;2024-02-28T12:42:56;4.93;;;0.50;;
79088;SDS011;68489;50.286;9.452;2024-02-28T12:45:21;3.90;;;0.43;;
79088;SDS011;68489;50.286;9.452;2024-02-28T12:47:47;4.85;;;0.60;;
79088;SDS011;68489;50.286;9.452;2024-02-28T12:50:12;6.90;;;1.15;;
79088;SDS011;68489;50.286;9.452;2024-02-28T12:52:37;5.15;;;0.95;;
79088;SDS011;68489;50.286;9.452;2024-02-28T12:55:03;9.75;;;1.60;;
79088;SDS011;68489;50.286;9.452;2024-02-28T12:57:28;6.25;;;1.02;;
79088;SDS011;68489;50.286;9.452;2024-02-28T12:59:54;7.20;;;1.13;;
79088;SDS011;68489;50.286;9.452;2024-02-28T13:02:20;5.07;;;0.90;;
79088;SDS011;68489;50.286;9.452;2024-02-28T13:04:46;7.63;;;1.38;;
79088;SDS011;68489;50.286;9.452;2024-02-28T13:07:11;4.22;;;0.60;;
79088;SDS011;68489;50.286;9.452;2024-02-28T13:09:37;5.20;;;0.70;;
79088;SDS011;68489;50.286;9.452;2024-02-28T13:12:02;9.38;;;1.30;;
79088;SDS011;68489;50.286;9.452;2024-02-28T13:14:29;6.28;;;0.90;;
79088;SDS011;68489;50.286;9.452;2024-02-28T13:16:54;6.55;;;1.42;;
79088;SDS011;68489;50.286;9.452;2024-02-28T13:19:20;6.95;;;1.13;;
79088;SDS011;68489;50.286;9.452;2024-02-28T13:21:45;5.60;;;0.80;;
79088;SDS011;68489;50.286;9.452;2024-02-28T13:24:11;6.75;;;1.08;;
79088;SDS011;68489;50.286;9.452;2024-02-28T13:26:36;5.38;;;1.00;;
79088;SDS011;68489;50.286;9.452;2024-02-28T13:29:02;5.80;;;0.70;;
79088;SDS011;68489;50.286;9.452;2024-02-28T13:31:27;4.90;;;0.93;;
79088;SDS011;68489;50.286;9.452;2024-02-28T13:33:53;6.10;;;0.70;;
79088;SDS011;68489;50.286;9.452;2024-02-28T13:36:18;4.93;;;0.93;;
79088;SDS011;68489;50.286;9.452;2024-02-28T13:38:44;4.13;;;0.90;;
79088;SDS011;68489;50.286;9.452;2024-02-28T13:41:09;5.15;;;1.05;;
79088;SDS011;68489;50.286;9.452;2024-02-28T13:43:35;8.25;;;1.08;;
79088;SDS011;68489;50.286;9.452;2024-02-28T13:46:00;5.35;;;0.93;;
79088;SDS011;68489;50.286;9.452;2024-02-28T13:48:26;6.30;;;1.35;;
79088;SDS011;68489;50.286;9.452;2024-02-28T13:50:53;5.57;;;0.88;;
79088;SDS011;68489;50.286;9.452;2024-02-28T13:53:19;5.63;;;1.15;;
79088;SDS011;68489;50.286;9.452;2024-02-28T13:55:45;7.18;;;1.42;;
79088;SDS011;68489;50.286;9.452;2024-02-28T13:58:13;6.53;;;1.55;;
79088;SDS011;68489;50.286;9.452;2024-02-28T14:00:42;5.38;;;0.98;;
79088;SDS011;68489;50.286;9.452;2024-02-28T14:03:10;5.90;;;1.33;;
79088;SDS011;68489;50.286;9.452;2024-02-28T14:05:35;5.05;;;1.08;;
79088;SDS011;68489;50.286;9.452;2024-02-28T14:08:01;5.82;;;0.93;;
79088;SDS011;68489;50.286;9.452;2024-02-28T14:10:28;4.53;;;0.80;;
79088;SDS011;68489;50.286;9.452;2024-02-28T14:12:54;5.72;;;0.73;;
79088;SDS011;68489;50.286;9.452;2024-02-28T14:15:19;6.88;;;0.88;;
79088;SDS011;68489;50.286;9.452;2024-02-28T14:17:45;6.53;;;1.50;;
79088;SDS011;68489;50.286;9.452;2024-02-28T14:20:11;6.65;;;0.93;;
79088;SDS011;68489;50.286;9.452;2024-02-28T14:22:36;5.80;;;0.73;;
79088;SDS011;68489;50.286;9.452;2024-02-28T14:25:06;4.88;;;1.10;;
79088;SDS011;68489;50.286;9.452;2024-02-28T14:27:32;4.15;;;0.60;;
79088;SDS011;68489;50.286;9.452;2024-02-28T14:29:58;5.03;;;0.70;;
79088;SDS011;68489;50.286;9.452;2024-02-28T14:32:23;4.40;;;0.50;;